Главная страница
METAR-TAF:

METAR-TAF

Аэропорты :

Понпеи, Микронезия

широта: 06-59N, долгота: 158-12E, высота над уровнем моря: 2 м

Текущие метеонаблюдения

Эта сводка был подготовлена 18 часа и 20 минут назад, в 02:53 UTC
Ветер 10 Узел от восточно-юго-восточный
Температура 31°C
Влажность 71%
Давление 1006 hPa
Видимость: 24.1 км
Отдельные облака на высоте 1800 фута, мощно-кучевые.
Рассеянная облачность на высоте 30000 фута

METAR: PTPN 090253Z 11010KT 15SM SCT018TCU BKN300 31/25 A2970 RMK TCU S LAST

Время: 08:13 (21:13 UTC)

Прогноз

Эта сводка был подготовлена 21 часа и 35 минут назад, в 23:38 UTC
Прогноз действительный с 09-го 00 UTC до 09-го 24 UTC
Ветер 10 Узел от восточный
Видимость: 10 км
небольшая облачность на высоте 1800 фута
Отдельные облака на высоте 4000 фута
Отдельные облака на высоте 14000 фута
ливни в окрестностях

TAF: PTPN 082338Z 0900/0924 10010KT P6SM VCSH FEW018 SCT040 SCT140

Метеонаблюдения и прогнозы для более 4000 аэропортов (сводки METAR и TAF).

Имеющиеся станции представлены на карте желтыми и красными точками.

Чтобы увидеть название станции, наведите на нее мышь.

Затем щелкните, чтобы увидеть метеонаблюдения и метеопрогнозы.

Управление картой: чтобы увеличить масштаб, щелкните зеленые кнопки с черным крестиком; чтобы уменьшить масштаб, щелкните зеленую кнопку с тире; для просмотра соседних карт щелкайте зеленые стрелки.


METAR-TAF: